Time;durP1;ratioP1;P1;durP2;ratioP2;P2;SDS_P1;SDS_P2;PMS_P1;PMS_P2;Temp;Humidity;BMP_temperature;BMP_pressure;BME280_temperature;BME280_humidity;BME280_pressure;Samples;Min_cycle;Max_cycle;Signal;HPM_P1;HPM_P2
2021/01/03 00:00:57;;;;;;;0.80;0.20;;;5.70;99.90;;;;;;4988478;28;20124;-57
2021/01/03 00:03:23;;;;;;;0.73;0.32;;;5.60;99.90;;;;;;4985951;28;20693;-51
2021/01/03 00:05:49;;;;;;;0.90;0.25;;;5.60;99.90;;;;;;4988667;28;20066;-54
2021/01/03 00:08:15;;;;;;;2.85;0.60;;;5.60;99.90;;;;;;4985270;28;20038;-50
2021/01/03 00:10:41;;;;;;;1.98;0.60;;;;;;;;;;4991251;28;20042;-54
2021/01/03 00:13:07;;;;;;;2.00;0.50;;;;;;;;;;4988293;28;20026;-54
2021/01/03 00:15:33;;;;;;;1.92;0.60;;;;;;;;;;4985143;28;20421;-56
2021/01/03 00:17:59;;;;;;;1.80;0.50;;;;;;;;;;4986885;28;20034;-54
2021/01/03 00:20:28;;;;;;;1.70;0.40;;;;;;;;;;4986683;28;20394;-55
2021/01/03 00:22:54;;;;;;;1.90;0.30;;;;;;;;;;4988274;28;20038;-54
2021/01/03 00:25:21;;;;;;;1.30;0.32;;;;;;;;;;4988546;28;20296;-51
2021/01/03 00:27:49;;;;;;;1.88;0.40;;;;;;;;;;4989326;28;20037;-52
2021/01/03 00:30:16;;;;;;;2.00;0.60;;;;;;;;;;4987064;28;20045;-54
2021/01/03 00:32:43;;;;;;;2.20;0.40;;;;;;;;;;4988901;28;20170;-52
2021/01/03 00:35:10;;;;;;;1.73;0.30;;;;;;;;;;4988210;28;20050;-55
2021/01/03 00:37:36;;;;;;;2.33;0.17;;;;;;;;;;4986402;28;20034;-53
2021/01/03 00:40:04;;;;;;;1.58;0.20;;;;;;;;;;4987832;28;20459;-50
2021/01/03 00:42:30;;;;;;;0.80;0.20;;;;;;;;;;4989588;28;20054;-49
2021/01/03 00:44:56;;;;;;;0.63;0.30;;;;;;;;;;4978769;28;20038;-56
2021/01/03 00:47:21;;;;;;;0.60;0.13;;;5.60;99.90;;;;;;4989036;28;20078;-55
2021/01/03 00:49:47;;;;;;;4.10;0.10;;;6.30;99.90;;;;;;4987561;28;20066;-55
2021/01/03 00:52:13;;;;;;;0.52;0.20;;;6.30;99.90;;;;;;4988378;28;20522;-53
2021/01/03 00:54:39;;;;;;;3.33;0.13;;;6.30;99.90;;;;;;4987197;28;20107;-51
2021/01/03 00:57:04;;;;;;;0.43;0.10;;;6.30;99.90;;;;;;4986080;28;20402;-50
2021/01/03 00:59:30;;;;;;;0.38;0.10;;;6.30;99.90;;;;;;4988992;28;20026;-52
2021/01/03 01:01:56;;;;;;;0.20;0.10;;;6.30;99.90;;;;;;4993169;28;20371;-55
2021/01/03 01:04:21;;;;;;;0.47;0.10;;;6.40;99.90;;;;;;4992297;28;20093;-54
2021/01/03 01:06:47;;;;;;;0.05;0.00;;;6.40;99.90;;;;;;4993013;28;20037;-56
2021/01/03 01:09:13;;;;;;;1.25;0.10;;;6.40;99.90;;;;;;4992834;28;20034;-52
2021/01/03 01:11:41;;;;;;;0.17;0.00;;;6.40;99.90;;;;;;4993271;28;20038;-57
2021/01/03 01:14:08;;;;;;;0.20;0.00;;;6.40;99.90;;;;;;4991877;28;20030;-53
2021/01/03 01:16:35;;;;;;;0.63;0.10;;;6.40;99.90;;;;;;4991654;28;20049;-54
2021/01/03 01:19:02;;;;;;;0.93;0.13;;;6.40;99.90;;;;;;4991980;28;20369;-57
2021/01/03 01:21:28;;;;;;;0.60;0.10;;;6.40;99.90;;;;;;4992824;28;20034;-52
2021/01/03 01:23:53;;;;;;;0.63;0.10;;;6.30;99.90;;;;;;4991461;28;20065;-55
2021/01/03 01:26:19;;;;;;;2.55;0.10;;;6.30;99.90;;;;;;4993225;28;20692;-55
2021/01/03 01:28:45;;;;;;;1.02;0.20;;;6.30;99.90;;;;;;4991973;28;20077;-53
2021/01/03 01:31:11;;;;;;;0.70;0.10;;;6.20;99.90;;;;;;4992756;28;20542;-58
2021/01/03 01:33:36;;;;;;;0.50;0.10;;;6.30;99.90;;;;;;4991610;28;20386;-54
2021/01/03 01:36:03;;;;;;;0.30;0.00;;;6.20;99.90;;;;;;4992802;28;20049;-49
2021/01/03 01:38:29;;;;;;;0.52;0.25;;;6.30;99.90;;;;;;4991341;28;20026;-53
2021/01/03 01:40:57;;;;;;;1.05;0.10;;;6.20;99.90;;;;;;4992647;28;20762;-51
2021/01/03 01:43:23;;;;;;;0.20;0.10;;;6.20;99.90;;;;;;4991167;28;20066;-56
2021/01/03 01:45:48;;;;;;;0.45;0.10;;;6.20;99.90;;;;;;4992391;28;20049;-54
2021/01/03 01:48:31;;;;;;;0.30;0.30;;;6.10;99.90;;;;;;4988182;28;20022;-51
2021/01/03 01:51:18;;;;;;;0.30;0.05;;;6.10;99.90;;;;;;4989945;28;20053;-56
2021/01/03 01:54:06;;;;;;;1.25;0.00;;;6.10;99.90;;;;;;4992496;28;20053;-53
2021/01/03 01:56:41;;;;;;;0.32;0.00;;;6.10;99.90;;;;;;4991398;28;20045;-55
2021/01/03 01:59:07;;;;;;;0.10;0.00;;;6.10;99.90;;;;;;4991163;28;20049;-55
2021/01/03 02:01:43;;;;;;;0.82;0.10;;;6.10;99.90;;;;;;4992232;28;20145;-58
2021/01/03 02:04:24;;;;;;;0.57;0.00;;;6.20;99.90;;;;;;4991242;28;20073;-52
2021/01/03 02:07:18;;;;;;;0.30;0.05;;;6.20;99.90;;;;;;4991409;28;20034;-55
2021/01/03 02:10:09;;;;;;;0.25;0.15;;;6.20;99.90;;;;;;4982467;28;20053;-56
2021/01/03 02:12:39;;;;;;;0.63;0.30;;;6.30;99.90;;;;;;4991089;28;20066;-55
2021/01/03 02:15:15;;;;;;;0.10;0.00;;;6.30;99.90;;;;;;4991938;28;20042;-55
2021/01/03 02:17:44;;;;;;;0.60;0.10;;;6.30;99.90;;;;;;4990869;28;20038;-55
2021/01/03 02:20:13;;;;;;;0.40;0.00;;;6.30;99.90;;;;;;4991626;28;20053;-56
2021/01/03 02:22:44;;;;;;;0.98;0.00;;;6.30;99.90;;;;;;4990660;28;20034;-54
2021/01/03 02:25:13;;;;;;;0.00;0.00;;;6.30;99.90;;;;;;4991855;28;20443;-53
2021/01/03 02:28:05;;;;;;;0.30;0.00;;;6.40;99.90;;;;;;4990448;28;20137;-51
2021/01/03 02:30:31;;;;;;;0.20;0.00;;;6.40;99.90;;;;;;4991477;28;20038;-56
2021/01/03 02:33:08;;;;;;;0.00;0.00;;;6.40;99.90;;;;;;4990927;28;20041;-58
2021/01/03 02:35:39;;;;;;;0.47;0.00;;;6.40;99.90;;;;;;4991642;28;20435;-57
2021/01/03 02:38:07;;;;;;;0.98;0.00;;;6.40;99.90;;;;;;4990510;28;20129;-58
2021/01/03 02:43:08;;;;;;;1.15;0.05;;;6.50;99.90;;;;;;4916797;23;20102;-55
2021/01/03 02:45:34;;;;;;;0.32;0.00;;;6.50;99.90;;;;;;4991541;28;20114;-55
2021/01/03 02:48:14;;;;;;;0.08;0.00;;;6.40;99.90;;;;;;4991618;28;20026;-53
2021/01/03 02:50:39;;;;;;;0.25;0.00;;;6.40;99.90;;;;;;4991604;28;20153;-55
2021/01/03 02:53:05;;;;;;;0.20;0.00;;;6.40;99.90;;;;;;4991263;28;20048;-56
2021/01/03 02:55:31;;;;;;;0.57;0.00;;;6.30;99.90;;;;;;4991153;28;20034;-53
2021/01/03 02:57:57;;;;;;;0.00;0.00;;;6.30;99.90;;;;;;4991195;28;20045;-53
2021/01/03 03:00:24;;;;;;;0.10;0.00;;;6.30;99.90;;;;;;4991043;28;20112;-58
2021/01/03 03:02:51;;;;;;;0.80;0.03;;;6.30;99.90;;;;;;4991387;28;20030;-56
2021/01/03 03:05:18;;;;;;;0.13;0.00;;;6.40;99.90;;;;;;4991048;28;20038;-52
2021/01/03 03:07:44;;;;;;;1.05;0.00;;;6.40;99.90;;;;;;4991172;28;20035;-49
2021/01/03 03:10:10;;;;;;;0.43;0.00;;;6.40;99.90;;;;;;4991313;28;20454;-52
2021/01/03 03:12:36;;;;;;;0.20;0.00;;;6.50;99.90;;;;;;4990945;28;20439;-56
2021/01/03 03:15:05;;;;;;;0.82;0.00;;;6.50;99.90;;;;;;4990955;28;20541;-53
2021/01/03 03:17:31;;;;;;;0.93;0.00;;;6.60;99.90;;;;;;4991066;28;20117;-55
2021/01/03 03:19:56;;;;;;;0.20;0.00;;;6.60;99.90;;;;;;4990909;28;20108;-48
2021/01/03 03:22:22;;;;;;;0.28;0.05;;;6.60;99.90;;;;;;4990227;28;20439;-54
2021/01/03 03:24:48;;;;;;;0.20;0.00;;;6.60;99.90;;;;;;5005541;28;20397;-57
2021/01/03 03:27:14;;;;;;;0.35;0.00;;;6.60;99.90;;;;;;4990571;28;20121;-52
2021/01/03 03:29:39;;;;;;;1.58;0.00;;;6.40;99.90;;;;;;4990548;28;20141;-54
2021/01/03 03:32:05;;;;;;;1.10;0.00;;;6.40;99.90;;;;;;4990364;28;20497;-53
2021/01/03 03:34:31;;;;;;;0.40;0.03;;;6.30;99.90;;;;;;4990671;28;20481;-59
2021/01/03 03:36:58;;;;;;;0.60;0.00;;;6.20;99.90;;;;;;4990869;28;20038;-56
2021/01/03 03:39:25;;;;;;;0.60;0.10;;;6.20;99.90;;;;;;4990443;28;20544;-55
2021/01/03 03:41:57;;;;;;;0.13;0.00;;;6.10;99.90;;;;;;4990104;28;20472;-55
2021/01/03 03:44:24;;;;;;;0.35;0.10;;;6.20;99.90;;;;;;4990208;28;20109;-54
2021/01/03 03:47:01;;;;;;;0.65;0.10;;;6.20;99.90;;;;;;4990231;28;20439;-53
2021/01/03 03:49:27;;;;;;;1.27;0.00;;;6.20;99.90;;;;;;4990364;28;20034;-51
2021/01/03 03:51:54;;;;;;;0.22;0.00;;;6.20;99.90;;;;;;4990374;28;20053;-53
2021/01/03 03:54:21;;;;;;;0.30;0.00;;;6.30;99.90;;;;;;4990396;28;20363;-52
2021/01/03 03:57:06;;;;;;;1.33;0.00;;;6.30;99.90;;;;;;4990162;28;20037;-55
2021/01/03 03:59:32;;;;;;;2.17;0.00;;;6.40;99.90;;;;;;4990101;28;20057;-56
2021/01/03 04:01:58;;;;;;;0.20;0.00;;;6.40;99.90;;;;;;4989853;28;20049;-51
2021/01/03 04:04:25;;;;;;;0.40;0.00;;;6.40;99.90;;;;;;4990092;28;20030;-52
2021/01/03 04:06:51;;;;;;;0.10;0.00;;;6.50;99.90;;;;;;4990308;28;20414;-51
2021/01/03 04:09:17;;;;;;;1.35;0.10;;;6.50;99.90;;;;;;4989694;28;20032;-57
2021/01/03 04:11:45;;;;;;;0.10;0.00;;;6.50;99.90;;;;;;4990154;28;20026;-55
2021/01/03 04:14:12;;;;;;;1.02;0.10;;;6.40;99.90;;;;;;4989706;28;20034;-55
2021/01/03 04:16:49;;;;;;;0.20;0.00;;;6.40;99.90;;;;;;4989911;28;20092;-48
2021/01/03 04:19:15;;;;;;;0.30;0.00;;;6.40;99.90;;;;;;4989888;28;20034;-51
2021/01/03 04:21:41;;;;;;;0.30;0.00;;;6.30;99.90;;;;;;4989536;28;20129;-55
2021/01/03 04:24:08;;;;;;;0.63;0.00;;;6.30;99.90;;;;;;4989737;28;20109;-54
2021/01/03 04:26:34;;;;;;;0.73;0.00;;;6.30;99.90;;;;;;4989786;28;20042;-49
2021/01/03 04:29:00;;;;;;;2.05;0.10;;;6.20;99.90;;;;;;4989384;28;20576;-56
2021/01/03 04:31:26;;;;;;;0.25;0.00;;;6.30;99.90;;;;;;4989417;28;20037;-55
2021/01/03 04:33:52;;;;;;;0.10;0.00;;;6.30;99.90;;;;;;4988967;28;20034;-51
2021/01/03 04:36:18;;;;;;;0.20;0.00;;;6.30;99.90;;;;;;4989183;28;20038;-51
2021/01/03 04:38:45;;;;;;;0.30;0.00;;;6.30;99.90;;;;;;4989275;28;20041;-55
2021/01/03 04:41:26;;;;;;;0.28;0.10;;;6.30;99.90;;;;;;4989558;28;20050;-51
2021/01/03 04:43:54;;;;;;;0.20;0.05;;;6.30;99.90;;;;;;4989190;28;20510;-55
2021/01/03 04:46:24;;;;;;;0.20;0.00;;;6.30;99.90;;;;;;4989190;28;20038;-53
2021/01/03 04:48:53;;;;;;;0.40;0.00;;;6.40;99.90;;;;;;4989267;28;20497;-51
2021/01/03 04:51:19;;;;;;;0.95;0.00;;;6.30;99.90;;;;;;4989047;28;20118;-57
2021/01/03 04:54:06;;;;;;;0.40;0.10;;;6.40;99.90;;;;;;4989188;28;20121;-55
2021/01/03 04:56:32;;;;;;;2.58;0.10;;;6.30;99.90;;;;;;4989485;28;20038;-52
2021/01/03 04:59:07;;;;;;;0.63;0.00;;;6.40;99.90;;;;;;4989133;28;20423;-56
2021/01/03 05:01:54;;;;;;;0.60;0.00;;;6.40;99.90;;;;;;4988935;28;20047;-50
2021/01/03 05:04:41;;;;;;;0.40;0.00;;;6.30;99.90;;;;;;4989182;28;20273;-52
2021/01/03 05:07:12;;;;;;;1.05;0.20;;;6.30;99.90;;;;;;4989123;28;20081;-53
2021/01/03 05:09:38;;;;;;;0.40;0.00;;;6.20;99.90;;;;;;4989115;28;20034;-54
2021/01/03 05:12:12;;;;;;;0.50;0.10;;;6.20;99.90;;;;;;4988865;28;20493;-51
2021/01/03 05:15:00;;;;;;;1.08;0.20;;;6.10;99.90;;;;;;4989090;28;20034;-54
2021/01/03 05:17:26;;;;;;;1.65;0.17;;;6.10;99.90;;;;;;4989266;28;20034;-54
2021/01/03 05:19:52;;;;;;;0.47;0.10;;;6.00;99.90;;;;;;4988895;28;20030;-54
2021/01/03 05:22:36;;;;;;;2.00;0.10;;;6.00;99.90;;;;;;4988792;28;20031;-52
2021/01/03 05:25:05;;;;;;;0.30;0.10;;;6.00;99.90;;;;;;4988882;28;20557;-56
2021/01/03 05:27:30;;;;;;;1.45;0.10;;;6.00;99.90;;;;;;4988828;28;20053;-54
2021/01/03 05:30:26;;;;;;;0.75;0.10;;;6.00;99.90;;;;;;4989164;28;20030;-54
2021/01/03 05:32:52;;;;;;;0.32;0.17;;;6.10;99.90;;;;;;4988584;28;20093;-53
2021/01/03 05:35:27;;;;;;;1.33;0.10;;;6.10;99.90;;;;;;4988940;28;20089;-53
2021/01/03 05:37:56;;;;;;;0.68;0.10;;;6.00;99.90;;;;;;4989145;28;20032;-55
2021/01/03 05:40:31;;;;;;;2.05;1.05;;;6.00;99.90;;;;;;4988709;28;20031;-53
2021/01/03 05:43:12;;;;;;;1.08;0.10;;;6.10;99.90;;;;;;4988750;28;20101;-55
2021/01/03 05:46:14;;;;;;;3.20;0.10;;;6.10;99.90;;;;;;4989370;28;20769;-57
2021/01/03 05:49:07;;;;;;;2.70;0.08;;;6.10;99.90;;;;;;4992625;28;20145;-54
2021/01/03 05:52:01;;;;;;;0.22;0.05;;;6.10;99.90;;;;;;4992575;28;20415;-52
2021/01/03 05:54:35;;;;;;;1.23;0.10;;;6.00;99.90;;;;;;5000277;28;20121;-55
2021/01/03 05:57:11;;;;;;;0.38;0.10;;;6.00;99.90;;;;;;4992519;28;20030;-51
2021/01/03 05:59:41;;;;;;;0.22;0.00;;;6.10;99.90;;;;;;4992237;28;20034;-59
2021/01/03 06:02:09;;;;;;;0.20;0.10;;;6.10;99.90;;;;;;4992238;28;20449;-52
2021/01/03 06:04:35;;;;;;;1.52;0.10;;;6.00;99.90;;;;;;4992220;28;20041;-54
2021/01/03 06:07:25;;;;;;;4.90;0.20;;;6.00;99.90;;;;;;4992222;28;20034;-56
2021/01/03 06:09:51;;;;;;;1.77;0.20;;;5.90;99.90;;;;;;4992343;28;20113;-53
2021/01/03 06:12:24;;;;;;;0.45;0.10;;;5.90;99.90;;;;;;4991892;28;20030;-54
2021/01/03 06:14:59;;;;;;;1.00;0.20;;;5.90;99.90;;;;;;4992201;28;20046;-54
2021/01/03 06:17:36;;;;;;;3.13;0.20;;;5.90;99.90;;;;;;4992041;28;20429;-53
2021/01/03 06:20:16;;;;;;;2.22;0.20;;;5.80;99.90;;;;;;4991710;28;20177;-54
2021/01/03 06:22:51;;;;;;;1.92;0.40;;;5.80;99.90;;;;;;4991755;28;20092;-53
2021/01/03 06:25:58;;;;;;;2.15;0.20;;;5.90;99.90;;;;;;4991780;28;20018;-56
2021/01/03 06:28:29;;;;;;;3.30;0.47;;;5.90;99.90;;;;;;4989067;28;20070;-54
2021/01/03 06:31:36;;;;;;;3.55;0.20;;;5.90;99.90;;;;;;4988924;28;20031;-57
2021/01/03 06:34:11;;;;;;;0.47;0.10;;;5.90;99.90;;;;;;4988537;28;20035;-56
2021/01/03 06:37:17;;;;;;;1.52;0.22;;;5.80;99.90;;;;;;4988812;28;20603;-54
2021/01/03 06:39:47;;;;;;;2.00;0.30;;;5.80;99.90;;;;;;4966384;28;20185;-58
2021/01/03 06:42:34;;;;;;;0.55;0.20;;;5.80;99.90;;;;;;4988285;28;20367;-51
2021/01/03 06:45:18;;;;;;;1.33;0.22;;;5.80;99.90;;;;;;4988792;28;20066;-49
2021/01/03 06:48:18;;;;;;;0.60;0.10;;;5.80;99.90;;;;;;4988573;28;20062;-52
2021/01/03 06:51:03;;;;;;;0.30;0.10;;;5.70;99.90;;;;;;4978544;28;20132;-52
2021/01/03 06:54:04;;;;;;;1.58;0.30;;;5.70;99.90;;;;;;4988604;28;20066;-54
2021/01/03 06:57:06;;;;;;;0.90;0.30;;;5.70;99.90;;;;;;4988510;28;20050;-53
2021/01/03 06:59:57;;;;;;;3.20;0.30;;;5.80;99.90;;;;;;4988276;28;20042;-51
2021/01/03 07:02:23;;;;;;;2.28;0.50;;;5.80;99.90;;;;;;4986741;28;20042;-53
2021/01/03 07:04:49;;;;;;;1.30;0.30;;;5.80;99.90;;;;;;4991046;28;20515;-53
2021/01/03 07:07:23;;;;;;;2.35;0.50;;;5.90;99.90;;;;;;4991364;28;20117;-54
2021/01/03 07:10:17;;;;;;;2.92;0.40;;;5.90;99.90;;;;;;4991236;28;20042;-55
2021/01/03 07:12:49;;;;;;;1.27;0.32;;;5.90;99.90;;;;;;4990859;28;20054;-53
2021/01/03 07:15:35;;;;;;;5.05;0.60;;;5.80;99.90;;;;;;4990752;28;20038;-50
2021/01/03 07:18:19;;;;;;;4.50;0.40;;;5.80;99.90;;;;;;4990880;28;20464;-51
2021/01/03 07:21:13;;;;;;;0.85;0.30;;;5.80;99.90;;;;;;4990650;28;20486;-55
2021/01/03 07:23:42;;;;;;;3.42;0.40;;;5.80;99.90;;;;;;4990691;28;20037;-53
2021/01/03 07:26:14;;;;;;;3.53;0.40;;;5.80;99.90;;;;;;4991014;28;20335;-58
2021/01/03 07:28:48;;;;;;;1.20;0.20;;;5.80;99.90;;;;;;4990492;28;20501;-55
2021/01/03 07:31:59;;;;;;;2.35;0.43;;;5.80;99.90;;;;;;4991046;28;20066;-52
2021/01/03 07:34:30;;;;;;;1.10;0.20;;;5.80;99.90;;;;;;4990389;28;20038;-53
2021/01/03 07:37:23;;;;;;;2.80;0.85;;;5.80;99.90;;;;;;4990521;28;20038;-53
2021/01/03 07:40:15;;;;;;;2.28;0.45;;;5.80;99.90;;;;;;4989659;28;20037;-54
2021/01/03 07:42:46;;;;;;;3.72;0.90;;;5.90;99.90;;;;;;4990051;28;20062;-56
2021/01/03 07:45:12;;;;;;;1.50;0.20;;;6.00;99.90;;;;;;4990401;28;20044;-55
2021/01/03 07:47:45;;;;;;;2.38;0.28;;;6.10;99.90;;;;;;4988550;28;20101;-54
2021/01/03 07:50:17;;;;;;;0.82;0.22;;;6.10;99.90;;;;;;4990117;28;20121;-55
2021/01/03 07:53:21;;;;;;;0.93;0.20;;;6.20;99.90;;;;;;4990186;28;20042;-53
2021/01/03 07:55:47;;;;;;;0.85;0.20;;;6.30;99.90;;;;;;4974367;28;20035;-53
2021/01/03 07:58:19;;;;;;;2.13;0.20;;;6.30;99.90;;;;;;4989900;28;20037;-54
2021/01/03 08:00:55;;;;;;;2.03;0.50;;;6.30;99.90;;;;;;4989810;28;20038;-53
2021/01/03 08:03:24;;;;;;;2.13;0.28;;;6.30;99.90;;;;;;4987830;28;20030;-58
2021/01/03 08:05:50;;;;;;;1.17;0.22;;;6.40;99.90;;;;;;4988075;28;20050;-52
2021/01/03 08:08:27;;;;;;;0.80;0.25;;;6.40;99.90;;;;;;4989663;28;20429;-55
2021/01/03 08:11:07;;;;;;;8.68;1.10;;;6.40;99.90;;;;;;4985931;28;20133;-55
2021/01/03 08:13:45;;;;;;;1.30;0.30;;;6.40;99.90;;;;;;4991537;28;20042;-54
2021/01/03 08:16:11;;;;;;;1.65;0.40;;;6.40;99.90;;;;;;4988011;28;20074;-56
2021/01/03 08:18:45;;;;;;;5.55;0.50;;;6.40;99.90;;;;;;4984878;28;20484;-54
2021/01/03 08:21:16;;;;;;;1.60;0.30;;;6.40;99.90;;;;;;4985190;28;20038;-53
2021/01/03 08:23:42;;;;;;;4.32;0.73;;;6.50;99.90;;;;;;4989639;28;20030;-52
2021/01/03 08:26:19;;;;;;;4.43;0.57;;;6.50;99.90;;;;;;4988526;28;20037;-55
2021/01/03 08:29:12;;;;;;;2.75;1.30;;;6.50;99.90;;;;;;4987370;28;20347;-56
2021/01/03 08:31:46;;;;;;;1.65;0.50;;;6.60;99.90;;;;;;4989631;28;20360;-56
2021/01/03 08:34:16;;;;;;;2.45;0.40;;;6.60;99.90;;;;;;4989206;28;20096;-56
2021/01/03 08:36:42;;;;;;;2.88;0.40;;;6.60;99.90;;;;;;4988529;28;20571;-53
2021/01/03 08:39:13;;;;;;;1.83;0.30;;;6.60;99.90;;;;;;4988237;28;20117;-54
2021/01/03 08:41:55;;;;;;;4.90;0.43;;;6.70;99.90;;;;;;4982151;28;20556;-54
2021/01/03 08:44:46;;;;;;;1.20;0.40;;;6.70;99.90;;;;;;4981866;28;20069;-54
2021/01/03 08:47:20;;;;;;;2.08;0.40;;;6.90;99.90;;;;;;4987828;28;20398;-55
2021/01/03 08:49:46;;;;;;;2.42;0.50;;;6.90;99.90;;;;;;4982008;28;20038;-57
2021/01/03 08:52:20;;;;;;;4.10;0.55;;;7.00;99.90;;;;;;4986525;28;20028;-51
2021/01/03 08:54:49;;;;;;;2.97;0.70;;;7.10;99.90;;;;;;4988753;28;20038;-57
2021/01/03 08:57:16;;;;;;;3.72;1.20;;;7.20;99.90;;;;;;4988751;28;20042;-55
2021/01/03 08:59:44;;;;;;;6.03;0.88;;;7.20;99.90;;;;;;4989304;28;20022;-53
2021/01/03 09:02:21;;;;;;;3.08;0.93;;;7.30;99.90;;;;;;4989088;28;20045;-55
2021/01/03 09:04:48;;;;;;;4.50;0.90;;;7.40;99.90;;;;;;4987259;28;20122;-57
2021/01/03 09:07:15;;;;;;;2.90;0.70;;;7.50;99.90;;;;;;4984271;28;20049;-56
2021/01/03 09:09:47;;;;;;;8.85;0.88;;;7.60;99.90;;;;;;4982822;28;20037;-56
2021/01/03 09:12:14;;;;;;;3.70;0.52;;;7.60;99.90;;;;;;4981533;28;20471;-55
2021/01/03 09:14:51;;;;;;;2.88;0.63;;;7.60;99.90;;;;;;4980950;28;20042;-58
2021/01/03 09:17:26;;;;;;;4.05;0.80;;;7.60;99.90;;;;;;4987265;28;20036;-55
2021/01/03 09:19:56;;;;;;;4.60;0.77;;;7.50;99.90;;;;;;4970046;28;20035;-54
2021/01/03 09:22:28;;;;;;;3.92;1.00;;;7.60;99.90;;;;;;4992837;28;20050;-53
2021/01/03 09:25:06;;;;;;;7.45;0.80;;;7.60;99.90;;;;;;4993253;28;20037;-54
2021/01/03 09:27:34;;;;;;;5.65;0.68;;;7.60;99.90;;;;;;4993159;28;20045;-56
2021/01/03 09:30:25;;;;;;;2.33;0.90;;;7.60;99.90;;;;;;4992718;28;20026;-59
2021/01/03 09:33:03;;;;;;;1.60;0.43;;;7.60;99.90;;;;;;4988637;28;20466;-56
2021/01/03 09:35:53;;;;;;;2.65;0.32;;;7.70;99.90;;;;;;4991864;28;20045;-56
2021/01/03 09:38:34;;;;;;;1.77;0.40;;;7.70;99.90;;;;;;4988803;28;20089;-54
2021/01/03 09:41:15;;;;;;;1.25;0.20;;;7.80;99.90;;;;;;4992015;28;20042;-57
2021/01/03 09:43:59;;;;;;;5.53;0.50;;;7.90;99.90;;;;;;4990822;28;20061;-55
2021/01/03 09:46:34;;;;;;;1.23;0.20;;;8.00;99.90;;;;;;4992383;28;20034;-56
2021/01/03 09:49:20;;;;;;;2.60;0.40;;;8.00;99.90;;;;;;4990169;28;20058;-56
2021/01/03 09:51:56;;;;;;;;;;;7.90;99.90;;;;;;4990840;28;20506;-57
2021/01/03 09:54:31;;;;;;;2.53;0.50;;;7.90;99.90;;;;;;4991073;28;19914;-56
2021/01/03 09:56:57;;;;;;;2.80;0.70;;;7.80;99.90;;;;;;4989275;28;20042;-55
2021/01/03 09:59:23;;;;;;;1.20;0.40;;;7.80;99.90;;;;;;4992174;28;20037;-55
2021/01/03 10:01:50;;;;;;;7.15;0.30;;;7.80;99.90;;;;;;4990524;28;20038;-50
2021/01/03 10:04:24;;;;;;;3.63;0.60;;;7.90;99.90;;;;;;4978552;28;20546;-53
2021/01/03 10:06:52;;;;;;;2.35;0.30;;;7.90;99.90;;;;;;4984375;28;20042;-56
2021/01/03 10:09:31;;;;;;;5.07;0.60;;;8.00;99.90;;;;;;4991001;28;20073;-52
2021/01/03 10:11:58;;;;;;;5.28;0.47;;;8.00;99.90;;;;;;4990654;28;20034;-53
2021/01/03 10:14:33;;;;;;;3.00;0.50;;;8.10;99.90;;;;;;4990984;28;20080;-53
2021/01/03 10:17:18;;;;;;;3.13;0.33;;;8.20;99.90;;;;;;4981529;28;20030;-54
2021/01/03 10:19:45;;;;;;;1.48;0.40;;;8.20;99.90;;;;;;4990596;28;20344;-54
2021/01/03 10:22:44;;;;;;;6.80;1.75;;;8.30;99.90;;;;;;4988974;28;20038;-56
2021/01/03 10:25:15;;;;;;;1.38;0.35;;;8.40;99.90;;;;;;4979116;28;20369;-51
2021/01/03 10:28:10;;;;;;;6.32;0.50;;;8.50;99.90;;;;;;4988615;28;20046;-52
2021/01/03 10:30:37;;;;;;;4.68;0.55;;;8.50;99.90;;;;;;4973563;28;20027;-55
2021/01/03 10:33:03;;;;;;;3.60;0.30;;;8.60;99.90;;;;;;4985652;28;20178;-54
2021/01/03 10:35:29;;;;;;;2.75;0.40;;;8.70;99.90;;;;;;5001313;28;20068;-55
2021/01/03 10:37:55;;;;;;;7.97;0.60;;;8.70;99.90;;;;;;4991582;28;20513;-57
2021/01/03 10:40:22;;;;;;;7.47;0.85;;;8.70;99.90;;;;;;4991570;28;20030;-56
2021/01/03 10:42:49;;;;;;;4.30;0.82;;;8.90;99.90;;;;;;4989478;28;20198;-53
2021/01/03 10:45:16;;;;;;;5.10;1.35;;;8.90;99.90;;;;;;4990344;28;20116;-54
2021/01/03 10:47:42;;;;;;;10.20;1.35;;;9.00;99.90;;;;;;4986009;28;20431;-53
2021/01/03 10:50:11;;;;;;;5.20;1.08;;;9.10;99.90;;;;;;4977623;28;20030;-53
2021/01/03 10:52:36;;;;;;;5.07;1.23;;;9.10;99.90;;;;;;4989153;28;20034;-56
2021/01/03 10:55:04;;;;;;;4.70;0.70;;;9.10;99.90;;;;;;4988984;28;20041;-53
2021/01/03 10:57:29;;;;;;;3.53;0.82;;;9.20;99.90;;;;;;4988950;28;20042;-50
2021/01/03 10:59:55;;;;;;;3.92;0.47;;;9.20;99.90;;;;;;4989334;28;20383;-55
2021/01/03 11:02:21;;;;;;;2.65;0.30;;;9.30;99.90;;;;;;4990632;28;20046;-54
2021/01/03 11:04:46;;;;;;;3.80;0.90;;;9.40;99.90;;;;;;4990819;28;20413;-55
2021/01/03 11:07:12;;;;;;;3.13;0.55;;;9.50;99.90;;;;;;4990337;28;20034;-49
2021/01/03 11:09:38;;;;;;;4.00;0.55;;;9.50;99.90;;;;;;4990290;28;20482;-53
2021/01/03 11:12:10;;;;;;;2.50;0.60;;;9.50;99.90;;;;;;4989939;28;20509;-49
2021/01/03 11:14:37;;;;;;;4.25;0.52;;;9.50;99.90;;;;;;4989902;28;20117;-53
2021/01/03 11:17:07;;;;;;;5.13;0.50;;;9.50;99.90;;;;;;4989569;28;20030;-54
2021/01/03 11:19:34;;;;;;;3.30;0.98;;;9.60;99.90;;;;;;4990439;28;20112;-53
2021/01/03 11:22:01;;;;;;;3.05;0.40;;;9.60;99.90;;;;;;4985802;28;20046;-53
2021/01/03 11:24:27;;;;;;;2.45;0.47;;;9.70;99.90;;;;;;4989380;28;20030;-54
2021/01/03 11:26:53;;;;;;;9.60;0.73;;;9.70;99.90;;;;;;4983560;28;20038;-54
2021/01/03 11:29:25;;;;;;;4.72;0.95;;;9.80;99.90;;;;;;4990326;28;20118;-52
2021/01/03 11:31:54;;;;;;;5.18;0.40;;;9.90;99.90;;;;;;4990137;28;20029;-50
2021/01/03 11:34:23;;;;;;;2.65;0.10;;;9.90;99.90;;;;;;4989805;28;20034;-53
2021/01/03 11:36:51;;;;;;;3.53;0.30;;;9.90;99.90;;;;;;4989871;28;20027;-56
2021/01/03 11:39:18;;;;;;;2.25;0.30;;;10.10;99.90;;;;;;4989428;28;20105;-57
2021/01/03 11:41:46;;;;;;;9.43;0.20;;;10.20;99.90;;;;;;4989462;28;20041;-56
2021/01/03 11:44:12;;;;;;;1.33;0.20;;;10.20;99.90;;;;;;4987554;28;20386;-54
2021/01/03 11:46:38;;;;;;;2.67;0.20;;;10.20;99.90;;;;;;4989287;28;20101;-54
2021/01/03 11:49:04;;;;;;;2.35;0.20;;;10.10;99.90;;;;;;4988244;28;20486;-55
2021/01/03 11:51:30;;;;;;;6.28;0.15;;;10.10;99.90;;;;;;4990603;28;20026;-54
2021/01/03 11:53:56;;;;;;;1.52;0.10;;;10.10;99.90;;;;;;4989648;28;20050;-54
2021/01/03 11:56:23;;;;;;;2.95;0.10;;;10.20;99.90;;;;;;4989340;28;20036;-54
2021/01/03 11:58:49;;;;;;;3.38;0.20;;;10.20;99.90;;;;;;4988386;28;20030;-54
2021/01/03 12:01:19;;;;;;;2.97;0.20;;;10.20;99.90;;;;;;4988941;28;20351;-53
2021/01/03 12:03:46;;;;;;;5.28;0.20;;;10.20;99.90;;;;;;4988251;28;20130;-54
2021/01/03 12:06:15;;;;;;;3.35;0.20;;;10.20;99.90;;;;;;4988753;28;20026;-56
2021/01/03 12:08:42;;;;;;;3.92;0.30;;;10.30;99.90;;;;;;4988300;28;20038;-51
2021/01/03 12:11:08;;;;;;;5.45;0.20;;;10.30;99.90;;;;;;4990160;28;20034;-57
2021/01/03 12:13:34;;;;;;;1.13;0.10;;;10.30;99.90;;;;;;4987964;28;20128;-57
2021/01/03 12:16:00;;;;;;;1.17;0.20;;;10.20;99.90;;;;;;4989823;28;20041;-51
2021/01/03 12:18:25;;;;;;;2.70;0.40;;;10.10;99.90;;;;;;4989666;28;20084;-56
2021/01/03 12:20:52;;;;;;;3.10;0.20;;;10.00;99.90;;;;;;4989572;28;20133;-53
2021/01/03 12:23:18;;;;;;;4.32;0.17;;;9.90;99.90;;;;;;4989398;28;20038;-54
2021/01/03 12:25:43;;;;;;;9.75;0.20;;;9.90;99.90;;;;;;4989607;28;20027;-55
2021/01/03 12:28:09;;;;;;;3.40;0.28;;;9.90;99.90;;;;;;4989617;28;20113;-54
2021/01/03 12:30:35;;;;;;;4.03;0.20;;;9.90;99.90;;;;;;4989457;28;20057;-56
2021/01/03 12:33:01;;;;;;;1.33;0.17;;;9.80;99.90;;;;;;4989467;28;20041;-53
2021/01/03 12:35:26;;;;;;;2.85;0.90;;;9.80;99.90;;;;;;4989494;28;20121;-52
2021/01/03 12:37:52;;;;;;;4.05;0.25;;;9.80;99.90;;;;;;4989514;28;20038;-54
2021/01/03 12:40:18;;;;;;;3.67;0.30;;;9.80;99.90;;;;;;5004469;28;20549;-52
2021/01/03 12:42:44;;;;;;;7.72;0.70;;;9.80;99.90;;;;;;4989080;28;20338;-49
2021/01/03 12:45:12;;;;;;;3.10;0.30;;;9.90;99.90;;;;;;4989521;28;20035;-55
2021/01/03 12:47:37;;;;;;;4.03;0.60;;;10.00;99.90;;;;;;4989268;28;20089;-53
2021/01/03 12:50:05;;;;;;;6.18;0.63;;;10.00;99.90;;;;;;4989210;28;20038;-53
2021/01/03 12:52:31;;;;;;;4.18;1.00;;;10.00;99.90;;;;;;4989098;28;20348;-57
2021/01/03 12:54:57;;;;;;;4.50;0.80;;;9.90;99.90;;;;;;4988930;28;20039;-50
2021/01/03 12:57:23;;;;;;;3.40;0.70;;;9.80;99.90;;;;;;4989136;28;20032;-53
2021/01/03 12:59:49;;;;;;;4.80;1.13;;;9.80;99.90;;;;;;4989275;28;20030;-54
2021/01/03 13:02:14;;;;;;;3.65;0.80;;;9.80;99.90;;;;;;4989382;28;20046;-49
2021/01/03 13:04:41;;;;;;;7.13;1.40;;;9.80;99.90;;;;;;4989346;28;20109;-52
2021/01/03 13:07:07;;;;;;;7.15;1.13;;;9.80;99.90;;;;;;4989726;28;20099;-52
2021/01/03 13:09:32;;;;;;;6.45;0.73;;;9.70;99.90;;;;;;4988888;28;20030;-53
2021/01/03 13:11:58;;;;;;;2.90;0.75;;;9.60;99.90;;;;;;4989162;28;20038;-54
2021/01/03 13:14:24;;;;;;;4.05;0.55;;;9.60;99.90;;;;;;4989060;28;20086;-53
2021/01/03 13:16:50;;;;;;;5.00;0.70;;;9.50;99.90;;;;;;4988982;28;20034;-53
2021/01/03 13:19:16;;;;;;;5.28;1.00;;;9.40;99.90;;;;;;4989264;28;20593;-55
2021/01/03 13:21:44;;;;;;;3.65;0.68;;;9.40;99.90;;;;;;4988540;28;20137;-50
2021/01/03 13:24:10;;;;;;;3.72;0.68;;;9.30;99.90;;;;;;4988937;28;20569;-50
2021/01/03 13:26:35;;;;;;;6.97;1.05;;;9.40;99.90;;;;;;4988924;28;20023;-52